Latest Weather Observations for Mortlake

IDV60801

Issued at 8:03 am EST Tuesday 26 September 2017 (issued every 30 minutes, with the page automatically refreshed every 10 minutes)

About weather observations | Map of weather stations | Latest weather observations for VIC | Other Formats
Station Details ID: 090176 Name: MORTLAKE RACECOURSE Lat: -38.07 Lon: 142.77 Height: 130.0 m
Data from the previous 72 hours. | See also: Recent months at Mortlake
Date/Time
EST
Temp
°C
App
Temp
°C
Dew
Point
°C
Rel
Hum
%
Delta-T
°C
Wind Press
QNH
hPa
Press
MSL
hPa
Rain since
9am
mm
Dir  Spd
km/h
Gust
km/h
Spd
kts
Gust
kts
26/08:00am 7.3 5.5 7.3 100 0.0 NNW 6 7 3 4 1017.7 1017.8 0.4
26/07:30am 6.5 4.4 6.5 100 0.0 NNW 7 11 4 6 1017.5 1017.6 0.4
26/07:00am 4.7 2.4 4.7 100 0.0 NNW 6 7 3 4 1017.3 1017.4 0.4
26/06:30am 3.3 0.5 3.3 100 0.0 NNW 7 13 4 7 1017.3 1017.4 0.4
26/06:00am 1.8 -1.2 1.8 100 0.0 N 7 7 4 4 1017.2 1017.3 0.4
26/05:30am 2.6 -0.1 2.6 100 0.0 N 6 9 3 5 1016.8 1016.9 0.4
26/05:00am 2.6 -0.1 2.6 100 0.0 N 6 7 3 4 1016.6 1016.7 0.4
26/04:30am 3.8 1.1 3.8 100 0.0 N 7 7 4 4 1016.7 1016.8 0.4
26/04:00am 4.3 1.7 4.3 100 0.0 N 7 9 4 5 1016.6 1016.7 0.4
26/03:30am 3.7 1.2 3.7 100 0.0 NNW 6 9 3 5 1016.5 1016.6 0.4
26/03:00am 4.5 2.0 4.5 100 0.0 NNW 7 9 4 5 1016.4 1016.5 0.4
26/02:30am 4.8 2.3 4.8 100 0.0 NNW 7 9 4 5 1016.5 1016.6 0.4
26/02:00am 5.1 2.7 5.1 100 0.0 NNW 7 9 4 5 1016.5 1016.6 0.4
26/01:30am 5.1 3.2 5.1 100 0.0 NNW 4 6 2 3 1016.8 1016.9 0.4
26/01:00am 4.3 2.3 4.3 100 0.0 NNW 4 4 2 2 1016.6 1016.7 0.4
26/12:30am 2.6 -0.3 2.5 99 0.0 NNW 7 7 4 4 1016.5 1016.6 0.4
26/12:00am 3.7 1.5 3.4 98 0.1 NNW 4 6 2 3 1016.4 1016.5 0.4
 
Date/Time
EST
Temp
°C
App
Temp
°C
Dew
Point
°C
Rel
Hum
%
Delta-T
°C
Wind Press
QNH
hPa
Press
MSL
hPa
Rain since
9am
mm
Dir  Spd
km/h
Gust
km/h
Spd
kts
Gust
kts
25/11:30pm 4.4 2.3 4.0 97 0.2 NNW 4 6 2 3 1016.2 1016.3 0.4
25/11:00pm 6.1 4.0 6.0 99 0.0 W 6 7 3 4 1016.3 1016.4 0.4
25/10:30pm 6.4 5.2 6.3 99 0.0 S 2 4 1 2 1016.1 1016.2 0.4
25/10:00pm 4.3 1.8 3.7 96 0.3 WNW 6 9 3 5 1016.1 1016.2 0.4
25/09:30pm 5.1 2.7 4.2 94 0.4 W 6 7 3 4 1015.9 1016.0 0.4
25/09:00pm 5.8 4.0 5.2 96 0.3 WSW 4 6 2 3 1015.7 1015.8 0.4
25/08:30pm 4.5 2.3 3.3 92 0.5 WSW 4 7 2 4 1015.6 1015.7 0.4
25/08:00pm 5.1 2.6 3.8 91 0.5 SSW 6 7 3 4 1015.0 1015.1 0.4
25/07:30pm 6.0 3.0 4.2 88 0.8 SW 9 13 5 7 1014.7 1014.8 0.4
25/07:00pm 7.0 3.7 4.5 84 1.1 SW 11 13 6 7 1014.4 1014.5 0.4
25/06:30pm 8.0 4.7 4.8 80 1.4 SW 11 15 6 8 1014.1 1014.2 0.4
25/06:00pm 9.5 5.8 6.2 80 1.5 SW 15 19 8 10 1013.7 1013.9 0.4
25/05:30pm 10.0 5.5 6.3 78 1.7 SW 19 24 10 13 1013.5 1013.7 0.4
25/05:00pm 10.8 5.1 6.6 75 2.0 SW 26 33 14 18 1013.1 1013.2 0.4
25/04:30pm 11.9 7.2 6.2 68 2.7 SW 20 32 11 17 1012.6 1012.7 0.4
25/04:00pm 11.3 4.8 4.5 63 3.1 WSW 28 39 15 21 1012.3 1012.4 0.4
25/03:30pm 11.4 5.2 6.3 71 2.4 SW 28 39 15 21 1012.0 1012.1 0.4
25/03:00pm 11.7 4.8 6.4 70 2.5 SW 32 41 17 22 1011.7 1011.8 0.4
25/02:30pm 12.9 6.7 6.3 64 3.2 SW 28 37 15 20 1011.5 1011.6 0.4
25/02:03pm 12.7 6.5 6.3 65 3.1 SW 28 48 15 26 1011.4 1011.5 0.4
25/02:00pm 12.8 6.3 6.6 66 3.0 SW 30 48 16 26 1011.4 1011.5 0.4
25/01:30pm 11.6 4.4 6.1 69 2.6 SW 33 44 18 24 1011.0 1011.1 0.4
25/01:00pm 11.1 3.9 5.8 70 2.5 SW 33 46 18 25 1011.1 1011.2 0.4
25/12:30pm 11.9 4.7 6.0 67 2.8 SW 33 44 18 24 1010.7 1010.8 0.4
25/12:00pm 13.0 7.0 7.2 68 2.8 WSW 28 44 15 24 1010.6 1010.7 0.4
25/11:30am 11.7 7.8 9.6 87 1.1 WSW 20 32 11 17 1010.5 1010.6 0.4
25/11:00am 11.2 6.0 7.3 77 1.9 WSW 24 37 13 20 1010.3 1010.4 0.4
25/10:30am 12.2 7.3 8.3 77 1.9 WSW 24 33 13 18 1010.0 1010.1 0.4
25/10:00am 11.3 7.3 9.2 87 1.1 WSW 20 32 11 17 1009.7 1009.8 0.4
25/09:30am 10.9 7.3 10.0 94 0.5 W 19 24 10 13 1009.5 1009.6 0.4
25/09:00am 9.9 6.9 9.1 95 0.4 WSW 15 28 8 15 1009.0 1009.1 2.6
25/08:30am 10.1 7.7 10.1 100 0.0 W 13 19 7 10 1008.7 1008.8 2.4
25/08:00am 9.4 6.8 9.4 100 0.0 W 13 15 7 8 1008.1 1008.2 2.4
25/07:30am 8.8 6.8 8.8 100 0.0 W 9 15 5 8 1007.8 1007.9 2.4
25/07:00am 8.8 6.8 8.8 100 0.0 W 9 15 5 8 1007.5 1007.6 2.4
25/06:30am 8.7 7.3 8.7 100 0.0 W 6 7 3 4 1007.0 1007.1 2.4
25/06:00am 8.5 6.8 8.5 100 0.0 WSW 7 13 4 7 1006.4 1006.4 2.4
25/05:30am 8.9 7.0 8.9 100 0.0 WSW 9 13 5 7 1006.1 1006.1 2.4
25/05:00am 9.2 7.3 9.2 100 0.0 WSW 9 15 5 8 1005.6 1005.7 2.4
25/04:30am 9.3 7.1 9.3 100 0.0 W 11 17 6 9 1005.2 1005.3 1.8
25/04:00am 9.4 7.6 9.4 100 0.0 W 9 13 5 7 1005.0 1005.1 1.8
25/03:30am 9.4 6.8 9.4 100 0.0 W 13 19 7 10 1004.7 1004.8 1.6
25/03:00am 9.8 7.3 9.8 100 0.0 W 13 26 7 14 1004.5 1004.6 1.6
25/02:30am 9.9 7.8 9.9 100 0.0 WNW 11 15 6 8 1004.5 1004.6 1.2
25/02:00am 10.0 6.8 10.0 100 0.0 W 17 24 9 13 1004.5 1004.6 1.0
25/01:30am 10.1 6.5 10.0 99 0.1 W 19 26 10 14 1004.4 1004.5 1.0
25/01:00am 9.7 6.3 9.2 97 0.3 WNW 17 24 9 13 1004.0 1004.1 1.0
25/12:30am 9.9 6.0 9.3 96 0.3 WNW 20 26 11 14 1003.7 1003.8 1.0
25/12:00am 10.3 6.0 9.5 95 0.4 WNW 22 35 12 19 1003.5 1003.6 1.0
 
Date/Time
EST
Temp
°C
App
Temp
°C
Dew
Point
°C
Rel
Hum
%
Delta-T
°C
Wind Press
QNH
hPa
Press
MSL
hPa
Rain since
9am
mm
Dir  Spd
km/h
Gust
km/h
Spd
kts
Gust
kts
24/11:30pm 10.5 6.3 9.7 95 0.4 WNW 22 30 12 16 1003.3 1003.4 1.0
24/11:00pm 10.9 6.0 10.0 94 0.5 WNW 26 33 14 18 1003.2 1003.3 1.0
24/10:30pm 11.0 6.0 9.4 90 0.8 WNW 26 35 14 19 1002.9 1003.0 1.0
24/10:00pm 11.0 7.1 9.4 90 0.8 WNW 20 28 11 15 1002.7 1002.8 1.0
24/09:30pm 11.2 5.8 9.6 90 0.8 WNW 28 39 15 21 1002.1 1002.2 1.0
24/09:00pm 11.2 5.5 9.8 91 0.7 WNW 30 43 16 23 1001.5 1001.6 1.0
24/08:30pm 11.3 6.7 9.7 90 0.8 WNW 24 33 13 18 1001.2 1001.3 1.0
24/08:00pm 11.4 6.4 9.5 88 1.0 WNW 26 35 14 19 1000.5 1000.6 1.0
24/07:30pm 11.9 5.5 9.3 84 1.3 WNW 33 44 18 24 999.9 999.9 1.0
24/07:00pm 11.8 5.8 10.0 89 0.9 WNW 32 46 17 25 999.1 999.1 1.0
24/06:30pm 11.8 5.5 9.7 87 1.1 WNW 33 50 18 27 998.5 998.5 1.0
24/06:23pm 12.0 5.9 9.7 86 1.2 WNW 32 50 17 27 998.3 998.3 1.0
24/06:00pm 12.3 5.2 9.5 83 1.4 WNW 37 54 20 29 997.9 997.9 1.0
24/05:42pm 12.3 6.2 10.5 89 0.9 NW 33 52 18 28 997.5 997.6 1.0
24/05:30pm 12.4 6.3 10.3 87 1.1 NW 33 44 18 24 997.5 997.6 0.8
24/05:00pm 13.6 6.4 10.6 82 1.6 NW 39 61 21 33 996.9 997.0 0.8
24/04:54pm 13.2 6.0 10.6 84 1.4 NW 39 61 21 33 996.8 996.9 0.8
24/04:30pm 13.4 6.5 10.4 82 1.6 NW 37 52 20 28 996.7 996.8 0.8
24/04:00pm 13.3 5.6 10.3 82 1.6 NW 41 56 22 30 996.6 996.7 0.8
24/03:30pm 12.7 5.2 12.7 100 0.0 NW 44 69 24 37 996.6 996.7 0.8
24/03:11pm 12.2 5.6 11.3 94 0.5 WNW 37 57 20 31 996.6 996.7 0.8
24/03:00pm 12.3 5.8 10.4 88 1.0 WNW 35 52 19 28 996.6 996.7 0.4
24/02:32pm 13.8 7.1 9.5 75 2.2 NW 35 54 19 29 996.3 996.4 0.2
24/02:30pm 13.7 7.0 9.6 76 2.1 NW 35 52 19 28 996.3 996.4 0.2
24/02:03pm 13.5 5.5 9.0 74 2.3 NW 41 61 22 33 996.3 996.4 0.2
24/02:00pm 14.4 6.0 9.0 70 2.8 NW 43 59 23 32 996.3 996.4 0.2
24/01:36pm 14.4 5.8 8.8 69 2.9 NW 44 63 24 34 996.4 996.5 0.2
24/01:30pm 14.4 5.4 8.8 69 2.9 NW 46 61 25 33 996.5 996.6 0.2
24/01:01pm 14.0 7.1 11.5 85 1.3 NW 39 59 21 32 996.8 996.9 0.2
24/01:00pm 13.8 6.4 11.1 84 1.4 NW 41 59 22 32 996.8 996.9 0.2
24/12:57pm 13.3 6.4 10.3 82 1.6 WNW 37 59 20 32 996.9 997.0 0.2
24/12:30pm 15.2 7.6 8.9 66 3.2 NW 39 54 21 29 997.0 997.1 0.0
24/12:00pm 14.2 7.4 9.4 73 2.5 NW 35 54 19 29 997.3 997.4 0.0
24/11:36am 13.4 6.0 8.3 71 2.6 NW 37 56 20 30 997.3 997.4 0.0
24/11:30am 14.0 6.5 7.8 66 3.1 WNW 37 52 20 28 997.2 997.3 0.0
24/11:00am 14.4 6.4 7.5 63 3.5 NW 39 57 21 31 997.4 997.5 0.0
24/10:38am 13.8 7.2 8.4 70 2.7 NW 33 54 18 29 997.5 997.6 0.0
24/10:30am 14.2 6.8 8.4 68 2.9 NW 37 50 20 27 997.5 997.6 0.0
24/10:00am 14.1 8.3 9.5 74 2.4 NW 30 52 16 28 997.6 997.7 0.0
24/09:30am 13.0 5.7 8.9 76 2.1 NW 37 52 20 28 997.7 997.8 0.0
24/09:00am 12.4 5.6 9.1 80 1.7 NW 35 54 19 29 997.7 997.8 4.2
24/08:35am 11.8 5.3 9.0 83 1.4 NW 33 57 18 31 997.7 997.8 4.2
24/08:30am 11.5 5.1 8.7 83 1.4 NW 32 43 17 23 997.9 997.9 4.2
24/08:00am 10.4 5.0 8.2 86 1.1 NNW 26 35 14 19 997.7 997.8 4.2
24/07:30am 9.8 5.1 7.7 87 1.0 NW 22 32 12 17 997.5 997.6 4.2
24/07:00am 8.9 4.4 6.9 87 0.9 NW 20 30 11 16 997.5 997.6 4.2
24/06:30am 8.8 4.5 7.7 93 0.5 NW 20 32 11 17 997.2 997.3 4.2
24/06:00am 9.1 4.6 8.6 97 0.2 NW 22 32 12 17 997.0 997.1 4.2
24/05:30am 9.0 4.2 8.9 99 0.0 WNW 24 33 13 18 997.1 997.2 4.2
24/05:00am 9.1 3.9 8.8 98 0.1 WNW 26 35 14 19 997.1 997.2 3.4
24/04:30am 9.5 5.5 8.9 96 0.3 NW 20 28 11 15 997.0 997.1 2.0
24/04:00am 9.9 5.5 8.8 93 0.5 NW 22 32 12 17 996.9 997.0 1.4
24/03:30am 10.5 5.4 9.1 91 0.7 NW 26 37 14 20 996.9 997.0 1.2
24/03:00am 10.4 6.6 9.2 92 0.6 NNW 19 26 10 14 997.3 997.4 1.0
24/02:30am 9.9 6.8 8.7 92 0.6 NNW 15 24 8 13 997.5 997.6 1.0
24/02:00am 10.3 6.8 8.9 91 0.7 NW 17 24 9 13 998.2 998.2 1.0
24/01:30am 10.6 6.7 9.4 92 0.6 NW 20 26 11 14 998.7 998.7 1.0
24/01:00am 10.9 6.6 9.3 90 0.8 NW 22 32 12 17 998.9 998.9 1.0
24/12:30am 10.9 6.2 9.2 89 0.9 NW 24 32 13 17 998.8 998.8 1.0
24/12:00am 10.9 8.0 9.7 92 0.6 NW 15 22 8 12 998.7 998.7 1.0
 
Date/Time
EST
Temp
°C
App
Temp
°C
Dew
Point
°C
Rel
Hum
%
Delta-T
°C
Wind Press
QNH
hPa
Press
MSL
hPa
Rain since
9am
mm
Dir  Spd
km/h
Gust
km/h
Spd
kts
Gust
kts
23/11:30pm 11.2 6.9 9.5 89 0.9 WNW 22 30 12 16 998.9 998.9 1.0
23/11:00pm 12.0 5.9 9.6 85 1.2 NW 32 43 17 23 998.9 998.9 1.0
23/10:30pm 11.7 7.2 9.9 89 0.9 NW 24 32 13 17 999.0 999.0 1.0
23/10:00pm 11.8 8.2 10.0 89 0.9 NW 19 28 10 15 999.1 999.1 1.0
23/09:30pm 11.9 8.3 9.8 87 1.1 NW 19 26 10 14 998.8 998.8 1.0
23/09:00pm 12.1 7.5 9.5 84 1.3 WNW 24 33 13 18 998.7 998.7 1.0
23/08:30pm 12.3 7.7 9.5 83 1.4 WNW 24 35 13 19 998.5 998.5 1.0
23/08:00pm 12.9 7.0 9.2 78 1.9 WNW 30 41 16 22 998.0 998.0 1.0
23/07:30pm 13.2 9.4 11.3 88 1.0 WNW 22 32 12 17 997.2 997.3 1.0
23/07:00pm 13.0 10.8 12.2 95 0.4 NW 15 22 8 12 996.7 996.8 1.0
23/06:30pm 13.0 10.0 12.1 94 0.5 NW 19 28 10 15 996.3 996.4 1.0
23/06:00pm 13.7 10.1 12.9 95 0.4 WNW 24 33 13 18 996.1 996.2 1.0
23/05:30pm 14.1 9.9 12.5 90 0.9 W 26 41 14 22 995.7 995.8 0.8
23/05:00pm 13.9 11.4 13.4 97 0.3 W 19 28 10 15 995.1 995.2 0.8
23/04:30pm 13.5 11.8 12.6 94 0.5 W 13 26 7 14 994.8 994.9 0.6
23/04:00pm 14.8 11.5 11.6 81 1.7 WSW 20 32 11 17 994.8 994.9 0.0
23/03:30pm 15.3 10.8 11.3 77 2.2 SW 26 37 14 20 994.3 994.4 0.0
23/03:00pm 15.2 9.2 10.8 75 2.4 SW 33 44 18 24 993.7 993.7 0.0
23/02:30pm 18.6 13.4 12.8 69 3.3 SW 32 44 17 24 993.4 993.4 0.0
23/02:22pm 19.1 14.7 12.8 67 3.6 SW 28 39 15 21 992.7 992.7 0.0
23/02:00pm 21.4 19.7 12.3 56 5.2 WSW 13 20 7 11 992.0 992.0 0.0
23/01:30pm 22.2 22.3 12.7 55 5.4 WNW 4 7 2 4 991.5 991.5 0.0
23/01:00pm 21.6 20.9 11.3 52 5.8 NNW 6 11 3 6 991.9 991.9 0.0
23/12:30pm 22.0 21.9 13.4 58 5.0 N 6 9 3 5 992.1 992.1 0.0
23/12:00pm 21.0 19.3 12.4 58 4.9 ENE 13 24 7 13 992.2 992.2 0.0
23/11:30am 20.0 17.0 12.0 60 4.5 ENE 19 30 10 16 992.0 992.0 0.0
23/11:00am 19.7 17.4 12.9 65 3.9 ENE 17 22 9 12 992.8 992.8 0.0
23/10:30am 18.8 17.1 12.3 66 3.6 E 13 19 7 10 993.8 993.8 0.0
23/10:00am 17.9 16.4 11.9 68 3.3 E 11 17 6 9 995.4 995.5 0.0
23/09:30am 16.4 16.3 12.2 76 2.3 SE 4 7 2 4 996.9 997.0 0.0
23/09:00am 15.1 13.1 12.8 86 1.3 SW 15 20 8 11 998.5 998.5 0.0
23/08:30am 15.3 14.7 13.5 89 1.0 ESE 9 15 5 8 996.8 996.9 0.0

Other Formats:

Comma delimited format used in spreadsheet applications
http://www.bom.gov.au/fwo/IDV60801/IDV60801.94840.axf

JavaScript Object Notation format (JSON) in row-major order
http://www.bom.gov.au/fwo/IDV60801/IDV60801.94840.json